sensor_id;sensor_type;location;lat;lon;timestamp;P1;durP1;ratioP1;P2;durP2;ratioP2
14066;SDS011;7108;42.684;23.350;2023-12-20T00:00:14;190.50;;;108.67;;
14066;SDS011;7108;42.684;23.350;2023-12-20T00:02:39;205.80;;;104.83;;
14066;SDS011;7108;42.684;23.350;2023-12-20T00:05:11;198.60;;;105.70;;
14066;SDS011;7108;42.684;23.350;2023-12-20T00:07:36;207.70;;;108.85;;
14066;SDS011;7108;42.684;23.350;2023-12-20T00:10:02;187.37;;;107.37;;
14066;SDS011;7108;42.684;23.350;2023-12-20T00:12:28;175.90;;;103.45;;
14066;SDS011;7108;42.684;23.350;2023-12-20T00:14:53;183.03;;;107.27;;
14066;SDS011;7108;42.684;23.350;2023-12-20T00:17:19;163.67;;;102.03;;
14066;SDS011;7108;42.684;23.350;2023-12-20T00:19:45;194.30;;;105.03;;
14066;SDS011;7108;42.684;23.350;2023-12-20T00:22:11;165.87;;;102.10;;
14066;SDS011;7108;42.684;23.350;2023-12-20T00:24:36;198.57;;;106.73;;
14066;SDS011;7108;42.684;23.350;2023-12-20T00:27:02;169.90;;;104.07;;
14066;SDS011;7108;42.684;23.350;2023-12-20T00:29:27;186.57;;;107.93;;
14066;SDS011;7108;42.684;23.350;2023-12-20T00:31:53;176.90;;;102.37;;
14066;SDS011;7108;42.684;23.350;2023-12-20T00:34:19;163.57;;;99.50;;
14066;SDS011;7108;42.684;23.350;2023-12-20T00:36:44;197.27;;;103.23;;
14066;SDS011;7108;42.684;23.350;2023-12-20T00:39:10;170.57;;;101.50;;
14066;SDS011;7108;42.684;23.350;2023-12-20T00:41:35;186.47;;;104.03;;
14066;SDS011;7108;42.684;23.350;2023-12-20T00:44:07;171.75;;;102.13;;
14066;SDS011;7108;42.684;23.350;2023-12-20T00:46:32;171.87;;;101.30;;
14066;SDS011;7108;42.684;23.350;2023-12-20T00:48:58;169.20;;;98.50;;
14066;SDS011;7108;42.684;23.350;2023-12-20T00:51:26;177.40;;;100.53;;
14066;SDS011;7108;42.684;23.350;2023-12-20T00:53:52;168.90;;;101.13;;
14066;SDS011;7108;42.684;23.350;2023-12-20T00:56:20;167.82;;;99.45;;
14066;SDS011;7108;42.684;23.350;2023-12-20T00:58:46;194.63;;;103.70;;
14066;SDS011;7108;42.684;23.350;2023-12-20T01:01:15;180.82;;;101.25;;
14066;SDS011;7108;42.684;23.350;2023-12-20T01:03:40;208.15;;;107.15;;
14066;SDS011;7108;42.684;23.350;2023-12-20T01:06:06;171.37;;;99.93;;
14066;SDS011;7108;42.684;23.350;2023-12-20T01:08:34;186.65;;;102.43;;
14066;SDS011;7108;42.684;23.350;2023-12-20T01:11:00;187.40;;;103.33;;
14066;SDS011;7108;42.684;23.350;2023-12-20T01:13:29;172.32;;;102.63;;
14066;SDS011;7108;42.684;23.350;2023-12-20T01:15:54;172.57;;;102.43;;
14066;SDS011;7108;42.684;23.350;2023-12-20T01:18:20;162.13;;;99.05;;
14066;SDS011;7108;42.684;23.350;2023-12-20T01:20:45;192.20;;;101.23;;
14066;SDS011;7108;42.684;23.350;2023-12-20T01:23:11;186.80;;;110.70;;
14066;SDS011;7108;42.684;23.350;2023-12-20T01:25:36;219.97;;;116.33;;
14066;SDS011;7108;42.684;23.350;2023-12-20T01:28:02;196.97;;;113.17;;
14066;SDS011;7108;42.684;23.350;2023-12-20T01:30:28;200.23;;;114.33;;
14066;SDS011;7108;42.684;23.350;2023-12-20T01:32:53;193.97;;;114.00;;
14066;SDS011;7108;42.684;23.350;2023-12-20T01:35:19;210.33;;;120.47;;
14066;SDS011;7108;42.684;23.350;2023-12-20T01:37:45;235.17;;;122.57;;
14066;SDS011;7108;42.684;23.350;2023-12-20T01:40:10;220.13;;;122.80;;
14066;SDS011;7108;42.684;23.350;2023-12-20T01:42:36;235.77;;;126.47;;
14066;SDS011;7108;42.684;23.350;2023-12-20T01:45:03;236.75;;;131.27;;
14066;SDS011;7108;42.684;23.350;2023-12-20T01:47:29;236.10;;;128.15;;
14066;SDS011;7108;42.684;23.350;2023-12-20T01:49:55;219.23;;;125.43;;
14066;SDS011;7108;42.684;23.350;2023-12-20T01:52:22;221.82;;;124.68;;
14066;SDS011;7108;42.684;23.350;2023-12-20T01:54:48;229.82;;;123.45;;
14066;SDS011;7108;42.684;23.350;2023-12-20T01:57:19;202.43;;;122.32;;
14066;SDS011;7108;42.684;23.350;2023-12-20T01:59:45;230.73;;;122.30;;
14066;SDS011;7108;42.684;23.350;2023-12-20T02:02:13;197.63;;;119.70;;
14066;SDS011;7108;42.684;23.350;2023-12-20T02:04:39;208.98;;;122.60;;
14066;SDS011;7108;42.684;23.350;2023-12-20T02:07:05;201.82;;;121.97;;
14066;SDS011;7108;42.684;23.350;2023-12-20T02:09:35;204.55;;;116.53;;
14066;SDS011;7108;42.684;23.350;2023-12-20T02:12:01;201.90;;;120.07;;
14066;SDS011;7108;42.684;23.350;2023-12-20T02:14:29;207.30;;;119.22;;
14066;SDS011;7108;42.684;23.350;2023-12-20T02:16:55;206.87;;;122.43;;
14066;SDS011;7108;42.684;23.350;2023-12-20T02:19:21;194.07;;;119.40;;
14066;SDS011;7108;42.684;23.350;2023-12-20T02:21:46;208.43;;;122.17;;
14066;SDS011;7108;42.684;23.350;2023-12-20T02:24:12;200.80;;;120.50;;
14066;SDS011;7108;42.684;23.350;2023-12-20T02:26:37;205.53;;;124.00;;
14066;SDS011;7108;42.684;23.350;2023-12-20T02:29:03;200.98;;;118.07;;
14066;SDS011;7108;42.684;23.350;2023-12-20T02:31:29;196.90;;;112.20;;
14066;SDS011;7108;42.684;23.350;2023-12-20T02:33:57;208.05;;;120.38;;
14066;SDS011;7108;42.684;23.350;2023-12-20T02:36:26;199.30;;;113.55;;
14066;SDS011;7108;42.684;23.350;2023-12-20T02:38:51;204.90;;;116.80;;
14066;SDS011;7108;42.684;23.350;2023-12-20T02:41:17;202.93;;;114.50;;
14066;SDS011;7108;42.684;23.350;2023-12-20T02:43:43;191.77;;;115.43;;
14066;SDS011;7108;42.684;23.350;2023-12-20T02:46:09;204.43;;;118.10;;
14066;SDS011;7108;42.684;23.350;2023-12-20T02:48:39;194.20;;;114.45;;
14066;SDS011;7108;42.684;23.350;2023-12-20T02:51:07;196.70;;;113.80;;
14066;SDS011;7108;42.684;23.350;2023-12-20T02:53:33;189.55;;;111.15;;
14066;SDS011;7108;42.684;23.350;2023-12-20T02:55:58;186.07;;;110.73;;
14066;SDS011;7108;42.684;23.350;2023-12-20T02:58:24;192.00;;;107.83;;
14066;SDS011;7108;42.684;23.350;2023-12-20T03:00:49;181.60;;;107.50;;
14066;SDS011;7108;42.684;23.350;2023-12-20T03:03:16;178.63;;;107.90;;
14066;SDS011;7108;42.684;23.350;2023-12-20T03:05:44;194.52;;;106.03;;
14066;SDS011;7108;42.684;23.350;2023-12-20T03:08:11;178.20;;;106.07;;
14066;SDS011;7108;42.684;23.350;2023-12-20T03:10:37;173.47;;;103.20;;
14066;SDS011;7108;42.684;23.350;2023-12-20T03:13:02;186.00;;;104.73;;
14066;SDS011;7108;42.684;23.350;2023-12-20T03:15:30;176.18;;;106.07;;
14066;SDS011;7108;42.684;23.350;2023-12-20T03:17:56;171.03;;;100.20;;
14066;SDS011;7108;42.684;23.350;2023-12-20T03:20:24;159.98;;;101.47;;
14066;SDS011;7108;42.684;23.350;2023-12-20T03:22:51;177.77;;;102.20;;
14066;SDS011;7108;42.684;23.350;2023-12-20T03:25:19;162.95;;;102.00;;
14066;SDS011;7108;42.684;23.350;2023-12-20T03:27:45;178.20;;;104.27;;
14066;SDS011;7108;42.684;23.350;2023-12-20T03:30:11;172.63;;;103.10;;
14066;SDS011;7108;42.684;23.350;2023-12-20T03:32:37;172.50;;;102.17;;
14066;SDS011;7108;42.684;23.350;2023-12-20T03:35:03;162.85;;;98.82;;
14066;SDS011;7108;42.684;23.350;2023-12-20T03:37:29;170.98;;;103.63;;
14066;SDS011;7108;42.684;23.350;2023-12-20T03:39:55;178.83;;;102.30;;
14066;SDS011;7108;42.684;23.350;2023-12-20T03:42:20;172.63;;;102.57;;
14066;SDS011;7108;42.684;23.350;2023-12-20T03:44:49;176.38;;;104.97;;
14066;SDS011;7108;42.684;23.350;2023-12-20T03:47:14;174.53;;;105.60;;
14066;SDS011;7108;42.684;23.350;2023-12-20T03:49:40;186.77;;;105.00;;
14066;SDS011;7108;42.684;23.350;2023-12-20T03:52:06;175.70;;;102.37;;
14066;SDS011;7108;42.684;23.350;2023-12-20T03:54:37;166.25;;;101.07;;
14066;SDS011;7108;42.684;23.350;2023-12-20T03:57:07;167.85;;;103.95;;
14066;SDS011;7108;42.684;23.350;2023-12-20T03:59:39;160.63;;;101.80;;
14066;SDS011;7108;42.684;23.350;2023-12-20T04:02:04;157.13;;;98.15;;
14066;SDS011;7108;42.684;23.350;2023-12-20T04:04:30;160.97;;;99.67;;
14066;SDS011;7108;42.684;23.350;2023-12-20T04:06:55;168.60;;;102.23;;
14066;SDS011;7108;42.684;23.350;2023-12-20T04:09:21;166.27;;;99.43;;
14066;SDS011;7108;42.684;23.350;2023-12-20T04:11:46;176.17;;;99.43;;
14066;SDS011;7108;42.684;23.350;2023-12-20T04:14:12;162.27;;;96.77;;
14066;SDS011;7108;42.684;23.350;2023-12-20T04:16:40;175.93;;;98.93;;
14066;SDS011;7108;42.684;23.350;2023-12-20T04:19:05;153.70;;;96.53;;
14066;SDS011;7108;42.684;23.350;2023-12-20T04:21:31;170.87;;;97.73;;
14066;SDS011;7108;42.684;23.350;2023-12-20T04:23:57;161.07;;;94.80;;
14066;SDS011;7108;42.684;23.350;2023-12-20T04:26:22;165.03;;;94.20;;
14066;SDS011;7108;42.684;23.350;2023-12-20T04:28:48;165.47;;;96.03;;
14066;SDS011;7108;42.684;23.350;2023-12-20T04:31:13;160.57;;;93.33;;
14066;SDS011;7108;42.684;23.350;2023-12-20T04:33:39;184.43;;;100.30;;
14066;SDS011;7108;42.684;23.350;2023-12-20T04:36:05;163.43;;;94.20;;
14066;SDS011;7108;42.684;23.350;2023-12-20T04:38:30;160.73;;;96.97;;
14066;SDS011;7108;42.684;23.350;2023-12-20T04:40:56;157.60;;;94.83;;
14066;SDS011;7108;42.684;23.350;2023-12-20T04:43:22;150.37;;;96.33;;
14066;SDS011;7108;42.684;23.350;2023-12-20T04:45:47;159.13;;;97.80;;
14066;SDS011;7108;42.684;23.350;2023-12-20T04:48:13;159.73;;;99.20;;
14066;SDS011;7108;42.684;23.350;2023-12-20T04:50:41;172.75;;;98.28;;
14066;SDS011;7108;42.684;23.350;2023-12-20T04:53:07;159.53;;;96.33;;
14066;SDS011;7108;42.684;23.350;2023-12-20T04:55:33;166.70;;;99.53;;
14066;SDS011;7108;42.684;23.350;2023-12-20T04:58:01;156.80;;;99.55;;
14066;SDS011;7108;42.684;23.350;2023-12-20T05:00:27;168.10;;;100.33;;
14066;SDS011;7108;42.684;23.350;2023-12-20T05:02:52;176.70;;;98.07;;
14066;SDS011;7108;42.684;23.350;2023-12-20T05:05:18;159.10;;;98.27;;
14066;SDS011;7108;42.684;23.350;2023-12-20T05:07:43;170.80;;;99.50;;
14066;SDS011;7108;42.684;23.350;2023-12-20T05:10:09;161.37;;;101.00;;
14066;SDS011;7108;42.684;23.350;2023-12-20T05:12:34;163.57;;;98.10;;
14066;SDS011;7108;42.684;23.350;2023-12-20T05:15:00;162.77;;;95.07;;
14066;SDS011;7108;42.684;23.350;2023-12-20T05:17:26;151.43;;;96.37;;
14066;SDS011;7108;42.684;23.350;2023-12-20T05:19:51;156.50;;;94.13;;
14066;SDS011;7108;42.684;23.350;2023-12-20T05:22:19;157.10;;;95.50;;
14066;SDS011;7108;42.684;23.350;2023-12-20T05:24:45;173.25;;;96.30;;
14066;SDS011;7108;42.684;23.350;2023-12-20T05:27:11;167.17;;;96.57;;
14066;SDS011;7108;42.684;23.350;2023-12-20T05:29:36;153.80;;;95.90;;
14066;SDS011;7108;42.684;23.350;2023-12-20T05:32:02;146.97;;;95.70;;
14066;SDS011;7108;42.684;23.350;2023-12-20T05:34:31;153.77;;;94.22;;
14066;SDS011;7108;42.684;23.350;2023-12-20T05:37:02;150.75;;;95.20;;
14066;SDS011;7108;42.684;23.350;2023-12-20T05:39:28;147.60;;;92.30;;
14066;SDS011;7108;42.684;23.350;2023-12-20T05:41:56;145.02;;;94.97;;
14066;SDS011;7108;42.684;23.350;2023-12-20T05:44:21;152.50;;;94.30;;
14066;SDS011;7108;42.684;23.350;2023-12-20T05:46:50;174.40;;;94.72;;
14066;SDS011;7108;42.684;23.350;2023-12-20T05:49:16;157.57;;;91.60;;
14066;SDS011;7108;42.684;23.350;2023-12-20T05:51:41;176.43;;;95.60;;
14066;SDS011;7108;42.684;23.350;2023-12-20T05:54:07;152.67;;;92.93;;
14066;SDS011;7108;42.684;23.350;2023-12-20T05:56:34;152.02;;;96.15;;
14066;SDS011;7108;42.684;23.350;2023-12-20T05:59:00;142.63;;;93.17;;
14066;SDS011;7108;42.684;23.350;2023-12-20T06:01:25;152.17;;;94.30;;
14066;SDS011;7108;42.684;23.350;2023-12-20T06:03:51;148.40;;;94.10;;
14066;SDS011;7108;42.684;23.350;2023-12-20T06:06:16;152.40;;;92.70;;
14066;SDS011;7108;42.684;23.350;2023-12-20T06:08:42;172.90;;;96.45;;
14066;SDS011;7108;42.684;23.350;2023-12-20T06:11:08;156.63;;;93.30;;
14066;SDS011;7108;42.684;23.350;2023-12-20T06:13:34;154.67;;;93.50;;
14066;SDS011;7108;42.684;23.350;2023-12-20T06:16:08;146.77;;;95.28;;
14066;SDS011;7108;42.684;23.350;2023-12-20T06:18:33;150.65;;;93.45;;
14066;SDS011;7108;42.684;23.350;2023-12-20T06:21:02;156.85;;;95.68;;
14066;SDS011;7108;42.684;23.350;2023-12-20T06:23:28;147.13;;;92.63;;
14066;SDS011;7108;42.684;23.350;2023-12-20T06:25:54;173.07;;;93.73;;
14066;SDS011;7108;42.684;23.350;2023-12-20T06:28:19;158.70;;;97.23;;
14066;SDS011;7108;42.684;23.350;2023-12-20T06:30:45;187.80;;;97.93;;
14066;SDS011;7108;42.684;23.350;2023-12-20T06:33:15;159.90;;;95.85;;
14066;SDS011;7108;42.684;23.350;2023-12-20T06:35:40;149.23;;;91.97;;
14066;SDS011;7108;42.684;23.350;2023-12-20T06:38:06;155.60;;;91.93;;
14066;SDS011;7108;42.684;23.350;2023-12-20T06:40:34;150.38;;;94.53;;
14066;SDS011;7108;42.684;23.350;2023-12-20T06:43:00;186.23;;;101.63;;
14066;SDS011;7108;42.684;23.350;2023-12-20T06:45:25;166.90;;;95.00;;
14066;SDS011;7108;42.684;23.350;2023-12-20T06:47:51;211.07;;;99.80;;
14066;SDS011;7108;42.684;23.350;2023-12-20T06:50:45;208.45;;;98.78;;
14066;SDS011;7108;42.684;23.350;2023-12-20T06:53:11;186.63;;;97.13;;
14066;SDS011;7108;42.684;23.350;2023-12-20T06:55:42;194.68;;;93.68;;
14066;SDS011;7108;42.684;23.350;2023-12-20T06:58:07;193.00;;;98.57;;
14066;SDS011;7108;42.684;23.350;2023-12-20T07:00:34;191.17;;;97.20;;
14066;SDS011;7108;42.684;23.350;2023-12-20T07:02:59;153.83;;;91.27;;
14066;SDS011;7108;42.684;23.350;2023-12-20T07:05:25;197.13;;;100.93;;
14066;SDS011;7108;42.684;23.350;2023-12-20T07:07:51;212.00;;;101.55;;
14066;SDS011;7108;42.684;23.350;2023-12-20T07:10:19;175.00;;;94.97;;
14066;SDS011;7108;42.684;23.350;2023-12-20T07:12:48;231.85;;;101.32;;
14066;SDS011;7108;42.684;23.350;2023-12-20T07:15:14;194.53;;;102.37;;
14066;SDS011;7108;42.684;23.350;2023-12-20T07:17:39;204.17;;;100.73;;
14066;SDS011;7108;42.684;23.350;2023-12-20T07:20:08;221.63;;;100.97;;
14066;SDS011;7108;42.684;23.350;2023-12-20T07:22:36;202.45;;;100.05;;
14066;SDS011;7108;42.684;23.350;2023-12-20T07:25:01;184.07;;;100.60;;
14066;SDS011;7108;42.684;23.350;2023-12-20T07:27:27;200.13;;;102.90;;
14066;SDS011;7108;42.684;23.350;2023-12-20T07:29:56;212.30;;;101.53;;
14066;SDS011;7108;42.684;23.350;2023-12-20T07:32:21;198.40;;;99.60;;
14066;SDS011;7108;42.684;23.350;2023-12-20T07:34:47;210.93;;;102.50;;
14066;SDS011;7108;42.684;23.350;2023-12-20T07:37:13;222.40;;;105.07;;
14066;SDS011;7108;42.684;23.350;2023-12-20T07:39:41;248.50;;;104.43;;
14066;SDS011;7108;42.684;23.350;2023-12-20T07:42:09;202.80;;;104.10;;
14066;SDS011;7108;42.684;23.350;2023-12-20T07:44:37;213.60;;;102.00;;
14066;SDS011;7108;42.684;23.350;2023-12-20T07:47:03;203.10;;;100.87;;
14066;SDS011;7108;42.684;23.350;2023-12-20T07:49:36;169.80;;;99.18;;
14066;SDS011;7108;42.684;23.350;2023-12-20T07:52:01;174.77;;;97.93;;
14066;SDS011;7108;42.684;23.350;2023-12-20T07:54:32;170.63;;;98.38;;
14066;SDS011;7108;42.684;23.350;2023-12-20T07:56:57;163.23;;;95.33;;
14066;SDS011;7108;42.684;23.350;2023-12-20T07:59:23;269.80;;;133.27;;
14066;SDS011;7108;42.684;23.350;2023-12-20T08:01:49;245.73;;;120.77;;
14066;SDS011;7108;42.684;23.350;2023-12-20T08:04:14;175.90;;;98.60;;
14066;SDS011;7108;42.684;23.350;2023-12-20T08:06:40;185.23;;;97.47;;
14066;SDS011;7108;42.684;23.350;2023-12-20T08:09:05;178.83;;;98.27;;
14066;SDS011;7108;42.684;23.350;2023-12-20T08:11:31;160.23;;;99.33;;
14066;SDS011;7108;42.684;23.350;2023-12-20T08:13:56;174.50;;;98.40;;
14066;SDS011;7108;42.684;23.350;2023-12-20T08:16:22;172.67;;;97.73;;
14066;SDS011;7108;42.684;23.350;2023-12-20T08:18:51;186.60;;;96.63;;
14066;SDS011;7108;42.684;23.350;2023-12-20T08:21:16;173.73;;;98.20;;
14066;SDS011;7108;42.684;23.350;2023-12-20T08:23:44;199.50;;;98.68;;
14066;SDS011;7108;42.684;23.350;2023-12-20T08:26:10;158.83;;;94.97;;
14066;SDS011;7108;42.684;23.350;2023-12-20T08:28:36;162.50;;;90.77;;
14066;SDS011;7108;42.684;23.350;2023-12-20T08:31:02;146.38;;;91.88;;
14066;SDS011;7108;42.684;23.350;2023-12-20T08:33:27;144.47;;;91.57;;
14066;SDS011;7108;42.684;23.350;2023-12-20T08:35:53;210.47;;;98.83;;
14066;SDS011;7108;42.684;23.350;2023-12-20T08:38:18;166.23;;;93.13;;
14066;SDS011;7108;42.684;23.350;2023-12-20T08:40:44;200.20;;;99.37;;
14066;SDS011;7108;42.684;23.350;2023-12-20T08:43:10;165.40;;;94.60;;
14066;SDS011;7108;42.684;23.350;2023-12-20T08:45:38;168.10;;;93.60;;
14066;SDS011;7108;42.684;23.350;2023-12-20T08:48:04;157.57;;;94.97;;
14066;SDS011;7108;42.684;23.350;2023-12-20T08:50:48;156.30;;;92.80;;
14066;SDS011;7108;42.684;23.350;2023-12-20T08:53:15;170.55;;;94.13;;
14066;SDS011;7108;42.684;23.350;2023-12-20T08:55:41;178.20;;;94.50;;
14066;SDS011;7108;42.684;23.350;2023-12-20T08:58:07;161.53;;;94.20;;
14066;SDS011;7108;42.684;23.350;2023-12-20T09:00:35;163.48;;;92.70;;
14066;SDS011;7108;42.684;23.350;2023-12-20T09:03:04;169.35;;;95.53;;
14066;SDS011;7108;42.684;23.350;2023-12-20T09:05:30;172.02;;;95.47;;
14066;SDS011;7108;42.684;23.350;2023-12-20T09:07:55;223.50;;;101.23;;
14066;SDS011;7108;42.684;23.350;2023-12-20T09:10:21;177.93;;;99.57;;
14066;SDS011;7108;42.684;23.350;2023-12-20T09:12:50;171.83;;;97.33;;
14066;SDS011;7108;42.684;23.350;2023-12-20T09:15:19;186.48;;;98.15;;
14066;SDS011;7108;42.684;23.350;2023-12-20T09:17:45;202.95;;;99.72;;
14066;SDS011;7108;42.684;23.350;2023-12-20T09:20:10;166.90;;;94.23;;
14066;SDS011;7108;42.684;23.350;2023-12-20T09:22:38;171.60;;;98.43;;
14066;SDS011;7108;42.684;23.350;2023-12-20T09:25:04;170.90;;;97.17;;
14066;SDS011;7108;42.684;23.350;2023-12-20T09:27:30;179.98;;;98.97;;
14066;SDS011;7108;42.684;23.350;2023-12-20T09:29:56;197.13;;;97.83;;
14066;SDS011;7108;42.684;23.350;2023-12-20T09:32:22;174.57;;;95.07;;
14066;SDS011;7108;42.684;23.350;2023-12-20T09:34:47;203.13;;;95.93;;
14066;SDS011;7108;42.684;23.350;2023-12-20T09:37:13;182.40;;;93.43;;
14066;SDS011;7108;42.684;23.350;2023-12-20T09:39:41;161.10;;;90.25;;
14066;SDS011;7108;42.684;23.350;2023-12-20T09:42:06;164.13;;;92.17;;
14066;SDS011;7108;42.684;23.350;2023-12-20T09:44:36;169.00;;;91.93;;
14066;SDS011;7108;42.684;23.350;2023-12-20T09:47:02;181.53;;;93.40;;
14066;SDS011;7108;42.684;23.350;2023-12-20T09:49:29;175.60;;;93.05;;
14066;SDS011;7108;42.684;23.350;2023-12-20T09:51:55;224.25;;;99.88;;
14066;SDS011;7108;42.684;23.350;2023-12-20T09:54:21;173.37;;;94.27;;
14066;SDS011;7108;42.684;23.350;2023-12-20T09:56:48;213.95;;;98.38;;
14066;SDS011;7108;42.684;23.350;2023-12-20T09:59:13;182.27;;;95.77;;
14066;SDS011;7108;42.684;23.350;2023-12-20T10:01:40;166.98;;;92.63;;
14066;SDS011;7108;42.684;23.350;2023-12-20T10:04:09;162.48;;;94.45;;
14066;SDS011;7108;42.684;23.350;2023-12-20T10:06:43;165.30;;;93.07;;
14066;SDS011;7108;42.684;23.350;2023-12-20T10:09:13;180.70;;;95.07;;
14066;SDS011;7108;42.684;23.350;2023-12-20T10:11:39;175.55;;;93.43;;
14066;SDS011;7108;42.684;23.350;2023-12-20T10:14:10;181.10;;;92.78;;
14066;SDS011;7108;42.684;23.350;2023-12-20T10:16:36;184.70;;;95.13;;
14066;SDS011;7108;42.684;23.350;2023-12-20T10:19:01;209.40;;;97.93;;
14066;SDS011;7108;42.684;23.350;2023-12-20T10:21:27;180.37;;;97.80;;
14066;SDS011;7108;42.684;23.350;2023-12-20T10:23:56;217.23;;;99.67;;
14066;SDS011;7108;42.684;23.350;2023-12-20T10:26:23;182.85;;;98.18;;
14066;SDS011;7108;42.684;23.350;2023-12-20T10:28:50;217.82;;;101.05;;
14066;SDS011;7108;42.684;23.350;2023-12-20T10:31:29;182.07;;;94.22;;
14066;SDS011;7108;42.684;23.350;2023-12-20T10:33:56;198.38;;;96.00;;
14066;SDS011;7108;42.684;23.350;2023-12-20T10:36:32;171.38;;;95.55;;
14066;SDS011;7108;42.684;23.350;2023-12-20T10:39:01;212.65;;;98.30;;
14066;SDS011;7108;42.684;23.350;2023-12-20T10:41:31;190.27;;;96.60;;
14066;SDS011;7108;42.684;23.350;2023-12-20T10:44:06;190.90;;;98.25;;
14066;SDS011;7108;42.684;23.350;2023-12-20T10:46:33;189.18;;;100.50;;
14066;SDS011;7108;42.684;23.350;2023-12-20T10:48:59;236.48;;;102.05;;
14066;SDS011;7108;42.684;23.350;2023-12-20T10:51:27;189.07;;;99.30;;
14066;SDS011;7108;42.684;23.350;2023-12-20T10:53:54;225.00;;;104.13;;
14066;SDS011;7108;42.684;23.350;2023-12-20T10:56:20;202.25;;;101.93;;
14066;SDS011;7108;42.684;23.350;2023-12-20T10:58:48;205.52;;;99.40;;
14066;SDS011;7108;42.684;23.350;2023-12-20T11:01:15;195.98;;;102.18;;
14066;SDS011;7108;42.684;23.350;2023-12-20T11:03:51;195.38;;;104.18;;
14066;SDS011;7108;42.684;23.350;2023-12-20T11:09:13;231.63;;;107.07;;
14066;SDS011;7108;42.684;23.350;2023-12-20T11:11:56;202.35;;;106.93;;
14066;SDS011;7108;42.684;23.350;2023-12-20T11:14:45;195.80;;;101.63;;
14066;SDS011;7108;42.684;23.350;2023-12-20T11:17:13;191.45;;;98.55;;
14066;SDS011;7108;42.684;23.350;2023-12-20T11:22:23;208.50;;;102.25;;
14066;SDS011;7108;42.684;23.350;2023-12-20T11:24:50;206.13;;;104.35;;
14066;SDS011;7108;42.684;23.350;2023-12-20T11:27:18;194.68;;;100.80;;
14066;SDS011;7108;42.684;23.350;2023-12-20T11:29:57;196.50;;;101.63;;
14066;SDS011;7108;42.684;23.350;2023-12-20T11:34:58;223.98;;;105.25;;
14066;SDS011;7108;42.684;23.350;2023-12-20T11:37:57;193.13;;;101.22;;
14066;SDS011;7108;42.684;23.350;2023-12-20T11:40:19;195.00;;;103.60;;
14066;SDS011;7108;42.684;23.350;2023-12-20T11:42:50;198.85;;;102.05;;
14066;SDS011;7108;42.684;23.350;2023-12-20T11:45:23;211.32;;;102.18;;
14066;SDS011;7108;42.684;23.350;2023-12-20T11:47:50;197.90;;;101.95;;
14066;SDS011;7108;42.684;23.350;2023-12-20T11:50:18;184.82;;;100.82;;
14066;SDS011;7108;42.684;23.350;2023-12-20T11:52:45;177.52;;;98.45;;
14066;SDS011;7108;42.684;23.350;2023-12-20T11:55:11;176.13;;;99.05;;
14066;SDS011;7108;42.684;23.350;2023-12-20T11:57:36;185.77;;;98.03;;
14066;SDS011;7108;42.684;23.350;2023-12-20T12:00:05;199.77;;;100.60;;
14066;SDS011;7108;42.684;23.350;2023-12-20T12:02:31;202.18;;;99.38;;
14066;SDS011;7108;42.684;23.350;2023-12-20T12:05:00;228.73;;;103.90;;
14066;SDS011;7108;42.684;23.350;2023-12-20T12:07:26;199.83;;;99.27;;
14066;SDS011;7108;42.684;23.350;2023-12-20T12:09:51;217.53;;;102.17;;
14066;SDS011;7108;42.684;23.350;2023-12-20T12:12:17;208.97;;;103.77;;
14066;SDS011;7108;42.684;23.350;2023-12-20T12:14:44;192.40;;;101.13;;
14066;SDS011;7108;42.684;23.350;2023-12-20T12:17:11;196.68;;;98.68;;
14066;SDS011;7108;42.684;23.350;2023-12-20T12:19:42;185.40;;;100.03;;
14066;SDS011;7108;42.684;23.350;2023-12-20T12:22:09;176.98;;;97.68;;
14066;SDS011;7108;42.684;23.350;2023-12-20T12:24:45;185.07;;;98.60;;
14066;SDS011;7108;42.684;23.350;2023-12-20T12:27:12;190.45;;;99.28;;
14066;SDS011;7108;42.684;23.350;2023-12-20T12:29:39;184.57;;;99.45;;
14066;SDS011;7108;42.684;23.350;2023-12-20T12:32:08;216.93;;;102.30;;
14066;SDS011;7108;42.684;23.350;2023-12-20T12:34:35;187.77;;;99.47;;
14066;SDS011;7108;42.684;23.350;2023-12-20T12:37:01;247.13;;;106.95;;
14066;SDS011;7108;42.684;23.350;2023-12-20T12:39:28;205.20;;;101.57;;
14066;SDS011;7108;42.684;23.350;2023-12-20T12:41:54;229.60;;;102.75;;
14066;SDS011;7108;42.684;23.350;2023-12-20T12:44:23;203.85;;;101.22;;
14066;SDS011;7108;42.684;23.350;2023-12-20T12:46:50;201.93;;;102.18;;
14066;SDS011;7108;42.684;23.350;2023-12-20T12:49:16;199.32;;;101.78;;
14066;SDS011;7108;42.684;23.350;2023-12-20T12:51:42;194.30;;;104.68;;
14066;SDS011;7108;42.684;23.350;2023-12-20T12:54:09;197.30;;;104.47;;
14066;SDS011;7108;42.684;23.350;2023-12-20T12:56:35;197.83;;;103.80;;
14066;SDS011;7108;42.684;23.350;2023-12-20T12:59:01;244.05;;;106.07;;
14066;SDS011;7108;42.684;23.350;2023-12-20T13:01:27;241.00;;;116.40;;
14066;SDS011;7108;42.684;23.350;2023-12-20T13:03:53;231.70;;;111.73;;
14066;SDS011;7108;42.684;23.350;2023-12-20T13:06:19;235.60;;;108.03;;
14066;SDS011;7108;42.684;23.350;2023-12-20T13:08:45;211.43;;;109.97;;
14066;SDS011;7108;42.684;23.350;2023-12-20T13:11:11;199.47;;;105.80;;
14066;SDS011;7108;42.684;23.350;2023-12-20T13:13:39;202.95;;;103.40;;
14066;SDS011;7108;42.684;23.350;2023-12-20T13:16:05;225.00;;;105.07;;
14066;SDS011;7108;42.684;23.350;2023-12-20T13:18:31;224.47;;;108.17;;
14066;SDS011;7108;42.684;23.350;2023-12-20T13:20:56;233.03;;;108.40;;
14066;SDS011;7108;42.684;23.350;2023-12-20T13:23:22;206.37;;;105.33;;
14066;SDS011;7108;42.684;23.350;2023-12-20T13:25:48;226.27;;;107.27;;
14066;SDS011;7108;42.684;23.350;2023-12-20T13:28:13;206.63;;;106.70;;
14066;SDS011;7108;42.684;23.350;2023-12-20T13:30:39;202.50;;;103.43;;
14066;SDS011;7108;42.684;23.350;2023-12-20T13:33:05;231.10;;;106.87;;
14066;SDS011;7108;42.684;23.350;2023-12-20T13:35:31;224.80;;;104.10;;
14066;SDS011;7108;42.684;23.350;2023-12-20T13:37:57;233.00;;;104.57;;
14066;SDS011;7108;42.684;23.350;2023-12-20T13:40:25;198.38;;;101.43;;
14066;SDS011;7108;42.684;23.350;2023-12-20T13:42:51;212.80;;;102.23;;
14066;SDS011;7108;42.684;23.350;2023-12-20T13:45:17;198.83;;;100.43;;
14066;SDS011;7108;42.684;23.350;2023-12-20T13:47:45;190.85;;;97.97;;
14066;SDS011;7108;42.684;23.350;2023-12-20T13:50:11;187.27;;;96.57;;
14066;SDS011;7108;42.684;23.350;2023-12-20T13:52:39;202.23;;;99.70;;
14066;SDS011;7108;42.684;23.350;2023-12-20T13:55:05;246.87;;;104.87;;
14066;SDS011;7108;42.684;23.350;2023-12-20T13:57:33;196.25;;;98.35;;
14066;SDS011;7108;42.684;23.350;2023-12-20T14:00:11;206.77;;;96.68;;
14066;SDS011;7108;42.684;23.350;2023-12-20T14:02:40;180.98;;;95.65;;
14066;SDS011;7108;42.684;23.350;2023-12-20T14:05:07;200.85;;;98.13;;
14066;SDS011;7108;42.684;23.350;2023-12-20T14:07:39;168.07;;;95.13;;
14066;SDS011;7108;42.684;23.350;2023-12-20T14:10:14;181.80;;;96.45;;